Weather History for South Hill, VA

Change the Weather History Date:

Wednesday, February 27, 2013

  Actual Average (KEMV) Record (KEMV)
Temperature  
Mean Temperature 47 °F -  
Max Temperature 57 °F 54 °F 73 °F (2011)
Min Temperature 37 °F 29 °F 14 °F (2006)
Degree Days  
Heating Degree Days 18    
Moisture  
Dew Point 40 °F    
Average Humidity 81    
Maximum Humidity 100    
Minimum Humidity 47    
Precipitation  
Precipitation 0.00 in - - ()
Sea Level Pressure  
Sea Level Pressure 29.73 in    
Wind  
Wind Speed 7 mph (WSW)    
Max Wind Speed 14 mph    
Max Gust Speed 23 mph    
Visibility 10 miles    
Events      
Averages and records for this station are not official NWS values.
T = Trace of Precipitation, MM = Missing Value Source: NWS Daily Summary

Daily Weather History Graph

Daily Weather History Graph

Search for Another Location

Airport:

Trip Planner

Search our weather history database for the weather conditions in past years. The results will help you decide how hot, cold, wet, or windy it might be!

Date:

Astronomy

Feb. 27, 2013 Rise Set
Actual Time 6:45 AM EST 6:04 PM EST
Civil Twilight 6:19 AM EST 6:31 PM EST
Nautical Twilight 5:49 AM EST 7:01 PM EST
Astronomical Twilight 5:19 AM EST 7:30 PM EST
Moon 8:18 PM EST (2/27) 7:23 AM EST (2/27)
Length of Visible Light 12h 11m
Length of Day
11h 19m
Waning Gibbous, 96% of the Moon is Illuminated
Feb 27
Waning Gibbous
Mar 4
Last Quarter
Mar 11
New
Mar 19
First Quarter
Mar 27
Full

Hourly Weather History & Observations

Time (EST) Temp. Windchill Dew Point Humidity Pressure Visibility Wind Dir Wind Speed Gust Speed Precip Events Conditions
12:15 AM 50.0 °F - 50.0 °F 100% 29.63 in 10.0 mi SW 5.8 mph - N/A   Scattered Clouds
12:35 AM 48.2 °F - 48.2 °F 100% 29.63 in 10.0 mi WSW 5.8 mph - 0.01 in   Clear
12:55 AM 48.2 °F - 48.2 °F 100% 29.63 in 10.0 mi WSW 6.9 mph 17.3 mph N/A   Scattered Clouds
1:15 AM 46.4 °F 42.9 °F 46.4 °F 100% 29.64 in 10.0 mi WSW 6.9 mph - N/A   Scattered Clouds
1:35 AM 46.4 °F 42.4 °F 46.4 °F 100% 29.64 in 10.0 mi WSW 8.1 mph - N/A   Scattered Clouds
1:55 AM 44.6 °F 42.2 °F 44.6 °F 100% 29.64 in 10.0 mi SW 4.6 mph 16.1 mph N/A   Mostly Cloudy
2:15 AM 44.6 °F 40.7 °F 44.6 °F 100% 29.64 in 10.0 mi WSW 6.9 mph - N/A   Overcast
2:35 AM 44.6 °F 40.7 °F 44.6 °F 100% 29.64 in 10.0 mi WSW 6.9 mph - N/A   Overcast
2:55 AM 44.6 °F 39.7 °F 44.6 °F 100% 29.65 in 10.0 mi WSW 9.2 mph - N/A   Overcast
3:15 AM 42.8 °F 37.5 °F 42.8 °F 100% 29.65 in 7.0 mi SW 9.2 mph - N/A   Overcast
3:35 AM 42.8 °F 38.6 °F 42.8 °F 100% 29.65 in 7.0 mi WSW 6.9 mph - N/A   Overcast
3:55 AM 42.8 °F 38.6 °F 42.8 °F 100% 29.65 in 7.0 mi WSW 6.9 mph - N/A   Overcast
4:15 AM 42.8 °F 41.1 °F 42.8 °F 100% 29.64 in 7.0 mi SW 3.5 mph - N/A   Overcast
4:35 AM 42.8 °F 38.6 °F 42.8 °F 100% 29.65 in 5.0 mi SSW 6.9 mph - N/A   Overcast
4:55 AM 42.8 °F 38.0 °F 42.8 °F 100% 29.66 in 7.0 mi WSW 8.1 mph - N/A   Overcast
5:15 AM 42.8 °F 37.0 °F 42.8 °F 100% 29.66 in 10.0 mi WSW 10.4 mph 18.4 mph N/A   Overcast
5:35 AM 42.8 °F 38.0 °F 42.8 °F 100% 29.68 in 10.0 mi SW 8.1 mph - N/A   Overcast
5:55 AM 42.8 °F 38.6 °F 42.8 °F 100% - 10.0 mi WSW 6.9 mph - N/A   Overcast
6:15 AM 42.8 °F 38.6 °F 42.8 °F 100% 29.69 in 10.0 mi WSW 6.9 mph - N/A   Overcast
6:35 AM 42.8 °F 37.5 °F 32.0 °F 66% 29.70 in 10.0 mi WSW 9.2 mph 16.1 mph N/A   Overcast
6:55 AM 42.8 °F 37.0 °F 42.8 °F 100% 29.71 in 10.0 mi WSW 10.4 mph 16.1 mph N/A   Overcast
7:15 AM 41.0 °F 36.4 °F 41.0 °F 100% 29.72 in 10.0 mi West 6.9 mph - N/A   Overcast
7:35 AM 41.0 °F 35.8 °F 41.0 °F 100% 29.74 in 10.0 mi WSW 8.1 mph - N/A   Overcast
7:55 AM 42.8 °F 37.5 °F 42.8 °F 100% 29.74 in 10.0 mi WSW 9.2 mph - N/A   Overcast
8:15 AM - - - N/A% 29.75 in 10.0 mi West 9.2 mph - N/A   Overcast
8:35 AM 42.8 °F 38.6 °F 42.8 °F 100% 29.76 in 10.0 mi WSW 6.9 mph 17.3 mph N/A   Mostly Cloudy
8:55 AM 44.6 °F 40.7 °F 42.8 °F 93% 29.77 in 10.0 mi WSW 6.9 mph - N/A   Scattered Clouds
9:15 AM 46.4 °F 43.5 °F 44.6 °F 93% 29.78 in 10.0 mi SW 5.8 mph - N/A   Scattered Clouds
9:35 AM 46.4 °F 42.4 °F 42.8 °F 87% 29.78 in 10.0 mi WSW 8.1 mph - N/A   Scattered Clouds
9:55 AM 48.2 °F - - N/A% 29.78 in 10.0 mi WSW 10.4 mph - N/A   Clear
10:15 AM 50.0 °F - 41.0 °F 71% 29.78 in 10.0 mi WSW 11.5 mph 20.7 mph N/A   Clear
10:35 AM 51.8 °F - 41.0 °F 67% 29.78 in 10.0 mi WSW 12.7 mph 18.4 mph N/A   Clear
10:55 AM 51.8 °F - 41.0 °F 67% 29.78 in 10.0 mi WSW 11.5 mph 19.6 mph N/A   Scattered Clouds
11:15 AM 51.8 °F - 39.2 °F 62% 29.78 in 10.0 mi West 11.5 mph - N/A   Clear
11:35 AM - - - N/A% 29.79 in 10.0 mi SW 9.2 mph - N/A   Scattered Clouds
11:55 AM 53.6 °F - 39.2 °F 58% 29.79 in 10.0 mi WSW 12.7 mph 17.3 mph N/A   Scattered Clouds
12:15 PM 55.4 °F - 41.0 °F 58% 29.79 in 10.0 mi WSW 9.2 mph 20.7 mph N/A   Mostly Cloudy
12:35 PM 53.6 °F - 39.2 °F 58% 20.39 in 10.0 mi WSW 10.4 mph 16.1 mph N/A   Mostly Cloudy
12:55 PM 53.6 °F - 37.4 °F 54% 29.77 in 10.0 mi West 11.5 mph 17.3 mph N/A   Scattered Clouds
1:15 PM 55.4 °F - 39.2 °F 54% 29.77 in 10.0 mi West 11.5 mph 17.3 mph N/A   Scattered Clouds
1:35 PM 53.6 °F - 37.4 °F 54% 29.76 in 10.0 mi WSW 11.5 mph 18.4 mph N/A   Scattered Clouds
1:55 PM 55.4 °F - 39.2 °F 54% 29.75 in 10.0 mi WSW 10.4 mph 17.3 mph N/A   Scattered Clouds
2:15 PM 57.2 °F - 39.2 °F 51% 29.75 in 10.0 mi WSW 11.5 mph 23.0 mph N/A   Clear
2:35 PM 55.4 °F - 37.4 °F 51% 29.74 in 10.0 mi SW 6.9 mph - N/A   Scattered Clouds
2:55 PM 57.2 °F - 37.4 °F 48% 29.75 in 10.0 mi SW 13.8 mph 19.6 mph N/A   Scattered Clouds
3:15 PM 57.2 °F - 37.4 °F 48% 29.76 in 10.0 mi WSW 12.7 mph 21.9 mph N/A   Clear
3:35 PM 57.2 °F - 37.4 °F 48% 29.75 in 10.0 mi West 5.8 mph 20.7 mph N/A   Scattered Clouds
3:55 PM 57.2 °F - 37.4 °F 48% 29.75 in 10.0 mi WSW 10.4 mph 16.1 mph N/A   Clear
4:15 PM 55.4 °F - 37.4 °F 51% 29.74 in 10.0 mi WSW 9.2 mph 18.4 mph N/A   Clear
4:35 PM 57.2 °F - 37.4 °F 48% 29.74 in 10.0 mi WSW 10.4 mph 18.4 mph N/A   Clear
4:55 PM 55.4 °F - 35.6 °F 47% 29.75 in 10.0 mi West 6.9 mph - N/A   Clear
5:15 PM 55.4 °F - 37.4 °F 51% 2.97 in 10.0 mi SW 6.9 mph - N/A   Clear
5:35 PM 53.6 °F - 37.4 °F 54% 29.75 in 10.0 mi West 6.9 mph - N/A   Clear
5:55 PM 53.6 °F - 37.4 °F 54% 29.75 in 10.0 mi Calm Calm - N/A   Clear
6:15 PM 51.8 °F - 37.4 °F 58% 29.76 in 10.0 mi West 3.5 mph - N/A   Clear
6:35 PM 46.4 °F - 37.4 °F 71% 29.76 in 10.0 mi Calm Calm - N/A   Clear
6:55 PM 44.6 °F - 39.2 °F 81% 29.77 in 10.0 mi Calm Calm - N/A   Clear
7:15 PM 44.6 °F - 39.2 °F 81% 29.76 in 10.0 mi Calm Calm - N/A   Unknown
7:35 PM 42.8 °F - 39.2 °F 87% 29.76 in 10.0 mi Calm Calm - N/A   Clear
7:55 PM 42.8 °F - 37.4 °F 81% 29.76 in 10.0 mi Calm Calm - N/A   Clear
8:15 PM 39.2 °F - 37.4 °F 93% 29.75 in 10.0 mi Calm Calm - N/A   Clear
8:35 PM 37.4 °F - 37.4 °F 100% 29.75 in 10.0 mi Calm Calm - N/A   Clear
9:15 PM 37.4 °F - 37.4 °F 100% 29.76 in 10.0 mi Calm Calm - N/A   Clear
9:35 PM 37.4 °F - 37.4 °F 100% 29.76 in 10.0 mi Calm Calm - N/A   Clear
9:55 PM 39.2 °F - 39.2 °F 100% 29.76 in 10.0 mi Calm Calm - N/A   Clear
10:15 PM 39.2 °F - 39.2 °F 100% 29.76 in 10.0 mi Calm Calm - N/A   Clear
10:35 PM 37.4 °F - 37.4 °F 100% 29.76 in 10.0 mi Calm Calm - N/A   Scattered Clouds
10:55 PM 41.0 °F - 39.2 °F 93% 29.76 in 10.0 mi Calm Calm - N/A   Mostly Cloudy
11:15 PM 39.2 °F 37.0 °F 37.4 °F 93% 29.75 in 10.0 mi WSW 3.5 mph - N/A   Mostly Cloudy
11:35 PM 42.8 °F 41.1 °F 37.4 °F 81% 29.75 in 10.0 mi WSW 3.5 mph - N/A   Mostly Cloudy
11:55 PM 44.6 °F 42.2 °F 37.4 °F 76% 29.75 in 10.0 mi WNW 4.6 mph - N/A   Scattered Clouds